• Join FlightAware (Why Join?)
  • Login
  • US Flag 
08:07PM EDT


 

Airport Tracker/Info


-or-


 

Live Flight TrackerFlight Track Log ✈ EZS1192 ✈ 29-Aug-2013 ✈ LLBG / TLV - LFSB / EAP

Flight Track Log - Related Links

Times and Time Zones

All times are in EDT time to prevent confusion due to time zone crossing. See the EZS1192 flight status page for this flight to view local times or setup timezone preferences in your user account.

Time Position Orientation Groundspeed Altitude Reporting Facility
EDT Latitude Longitude Course Direction KTS MPH feet Rate Location/Type
05:35AM 32.6404 34.1218 315° West  Level Estimated
05:36AM 32.7103 34.0373 314° West  Level Estimated
05:37AM 32.7800 33.9526 314° West  Level Estimated
05:38AM 32.8498 33.8678 314° West  Level Estimated
05:39AM 32.9194 33.7828 314° West  Level Estimated
05:40AM 32.9890 33.6978 314° West  Level Estimated
05:41AM 33.0586 33.6125 314° West  Level Estimated
05:42AM 33.1280 33.5272 314° West  Level Estimated
05:43AM 33.1974 33.4417 314° West  Level Estimated
05:44AM 33.2668 33.3561 314° West  Level Estimated
05:45AM 33.3361 33.2703 314° West  Level Estimated
05:46AM 33.4054 33.1844 314° West  Level Estimated
05:46AM 32.0090 34.8420 314° West 160 184 1,600  Level FlightAware
05:46AM 32.0060 34.8240 259° West 160 184 1,600 1,500 Level FlightAware
05:47AM 31.9920 34.7650 254° West 188 216 3,700 1,560 Climbing FlightAware
05:48AM 31.9960 34.7370 280° West 208 239 4,000 540 Climbing FlightAware
05:48AM 32.0060 34.7100 294° West 245 282 4,200 1,020 Climbing FlightAware
05:49AM 32.0170 34.6770 291° West 270 311 4,800 1,740 Climbing FlightAware
05:49AM 32.0210 34.6630 289° West 273 314 5,200 2,640 Climbing FlightAware
05:49AM 32.0280 34.6250 282° West 279 321 6,300 2,400 Climbing FlightAware
05:49AM 32.0300 34.5930 274° West 286 329 7,000 2,220 Climbing FlightAware
05:50AM 32.0310 34.5640 272° West 289 333 7,800 2,520 Climbing FlightAware
05:50AM 32.0340 34.5350 277° West 285 328 8,700 3,000 Climbing FlightAware
05:50AM 32.0380 34.5250 295° West 282 325 9,100 3,120 Climbing FlightAware
05:50AM 32.0460 34.5060 296° West 280 322 9,800 1,620 Climbing FlightAware
05:51AM 32.0690 34.4500 296° West 312 359 10,600 1,020 Climbing FlightAware
05:52AM 32.0910 34.3990 297° West 341 392 11,000 1,440 Climbing FlightAware
05:52AM 32.1200 34.3300 296° West 354 407 12,300 1,980 Climbing FlightAware
05:53AM 32.1440 34.2720 296° West 357 411 13,500 1,980 Climbing FlightAware
05:53AM 32.1660 34.2170 295° West 365 420 14,500 1,800 Climbing FlightAware
05:54AM 32.1930 34.1520 296° West 370 426 15,500 1,680 Climbing FlightAware
05:55AM 32.2170 34.0930 296° West 374 430 16,500 1,680 Climbing FlightAware
05:55AM 32.2490 34.0160 296° West 384 442 17,600 1,620 Climbing FlightAware
05:56AM 32.2720 33.9600 296° West 386 444 18,400 1,560 Climbing FlightAware
05:56AM 32.2990 33.8950 296° West 392 451 19,300 1,560 Climbing FlightAware
05:57AM 32.3280 33.8240 296° West 395 455 20,200 1,320 Climbing FlightAware
05:57AM 32.3560 33.7560 296° West 404 465 20,900 1,320 Climbing FlightAware
05:58AM 32.3890 33.6750 296° West 406 467 21,900 1,500 Climbing FlightAware
05:59AM 32.4190 33.6020 296° West 406 467 22,800 1,380 Climbing FlightAware
05:59AM 32.4460 33.5360 296° West 406 467 23,500 1,200 Climbing FlightAware
06:00AM 32.4750 33.4630 295° West 407 468 24,200 1,020 Climbing FlightAware
06:00AM 32.5050 33.3890 296° West 410 472 24,800 900 Climbing FlightAware
06:01AM 32.5340 33.3170 296° West 416 479 25,300 960 Climbing FlightAware
06:02AM 32.5610 33.2500 296° West 415 478 25,900 840 Climbing FlightAware
06:02AM 32.5910 33.1770 296° West 419 482 26,300 660 Climbing FlightAware
06:03AM 32.6200 33.1050 296° West 423 487 26,700 600 Climbing FlightAware
06:03AM 32.6510 33.0250 295° West 424 488 27,100 600 Climbing FlightAware
06:04AM 32.6800 32.9530 296° West 428 493 27,500 420 Climbing FlightAware
06:05AM 32.7240 32.8410 295° West 431 496 27,800 660 Climbing FlightAware
06:06AM 32.7650 32.7400 296° West 439 505 28,600 960 Climbing FlightAware
06:06AM 32.7990 32.6550 295° West 436 502 29,100 600 Climbing FlightAware
06:07AM 32.8280 32.5810 295° West 439 505 29,400 420 Climbing FlightAware
06:08AM 32.8720 32.4910 300° West 445 512 29,700 600 Climbing FlightAware
06:08AM 32.9310 32.4060 310° West 447 514 30,300 720 Climbing FlightAware
06:09AM 32.9700 32.3590 315° West 447 514 30,600 720 Climbing FlightAware
06:09AM 33.0250 32.2920 314° West 448 516 31,100 900 Climbing FlightAware
06:10AM 33.0790 32.2270 315° West 442 509 31,700 780 Climbing FlightAware
06:11AM 33.1290 32.1660 314° West 441 507 32,100 720 Climbing FlightAware
06:11AM 33.1780 32.1060 314° West 440 506 32,600 840 Climbing FlightAware
06:12AM 33.2320 32.0390 314° West 442 509 33,200 780 Climbing FlightAware
06:12AM 33.2860 31.9730 314° West 441 507 33,600 600 Climbing FlightAware
06:13AM 33.3290 31.9200 314° West 440 506 33,900 360 Climbing FlightAware
06:13AM 33.3810 31.8570 315° West 441 507 34,000 60 Climbing FlightAware
06:14AM 33.4230 31.8060 315° West 439 505 34,000  Level FlightAware
06:15AM 33.4730 31.7440 314° West 437 503 34,000  Level FlightAware
06:15AM 33.5290 31.6750 314° West 439 505 34,000  Level FlightAware
06:16AM 33.5800 31.6120 314° West 439 505 34,000  Level FlightAware
06:16AM 33.6290 31.5510 314° West 440 506 34,000  Level FlightAware
06:17AM 33.6720 31.4980 314° West 441 507 34,000  Level FlightAware
06:18AM 33.7280 31.4270 313° West 440 506 34,000  Level FlightAware
06:18AM 33.7780 31.3650 314° West 441 507 34,000  Level FlightAware
06:19AM 33.8280 31.3040 315° West 439 505 34,000  Level FlightAware
06:19AM 33.8750 31.2450 314° West 438 504 34,000  Level FlightAware
06:20AM 33.9260 31.1810 314° West 431 496 34,000  Level FlightAware
06:20AM 33.9740 31.1210 314° West 430 495 34,000  Level FlightAware
06:21AM 34.0180 31.0650 313° West 429 494 34,000  Level FlightAware
06:22AM 34.0690 31.0010 314° West 429 494 34,000  Level FlightAware
06:22AM 34.1250 30.9300 314° West 429 494 34,000  Level FlightAware
06:23AM 34.1680 30.8760 314° West 428 493 34,000  Level FlightAware
06:23AM 34.2180 30.8150 315° West 434 499 34,000  Level FlightAware
06:24AM 34.2660 30.7550 314° West 434 499 34,000  Level FlightAware
06:25AM 34.3140 30.6960 315° West 434 499 34,000  Level FlightAware
06:25AM 34.3640 30.6340 314° West 427 491 34,000  Level FlightAware
06:26AM 34.4140 30.5720 314° West 425 489 34,000  Level FlightAware
06:26AM 34.4680 30.5040 314° West 424 488 34,000  Level FlightAware
06:27AM 34.5100 30.4520 314° West 424 488 34,000  Level FlightAware
06:27AM 34.5590 30.3910 314° West 424 488 34,000  Level FlightAware
06:28AM 34.6080 30.3300 314° West 425 489 34,000  Level FlightAware
06:29AM 34.6530 30.2720 313° West 425 489 34,000  Level FlightAware
06:29AM 34.7020 30.2110 314° West 424 488 34,000  Level FlightAware
06:30AM 34.7640 30.1340 314° West 424 488 34,000  Level FlightAware
06:30AM 34.8080 30.0780 314° West 423 487 34,000  Level FlightAware
06:31AM 34.8580 30.0150 314° West 423 487 34,000  Level FlightAware
06:32AM 34.9060 29.9540 314° West 423 487 34,000  Level FlightAware
06:32AM 34.9480 29.9020 315° West 423 487 34,000  Level FlightAware
06:33AM 35.0060 29.8280 314° West 421 484 34,000  Level FlightAware
06:33AM 35.0510 29.7710 314° West 422 486 34,000  Level FlightAware
06:34AM 35.1110 29.6940 314° West 422 486 34,000  Level FlightAware
06:35AM 35.1480 29.6470 314° West 422 486 34,000  Level FlightAware
06:35AM 35.2000 29.5790 313° West 427 491 34,000  Level FlightAware
06:36AM 35.2570 29.5060 314° West 427 491 34,000  Level FlightAware
06:37AM 35.2990 29.4500 313° West 427 491 34,000  Level FlightAware
06:37AM 35.3660 29.3660 314° West 425 489 34,000  Level FlightAware
06:38AM 35.4130 29.3050 313° West 425 489 34,000  Level FlightAware
06:38AM 35.4610 29.2420 313° West 425 489 34,000  Level FlightAware
06:39AM 35.5070 29.1830 314° West 425 489 34,000  Level FlightAware
06:40AM 35.5610 29.1120 313° West 425 489 34,000  Level FlightAware
06:40AM 35.6020 29.0580 313° West 425 489 34,000  Level FlightAware
06:41AM 35.6580 28.9870 314° West 422 486 34,000 60 Level FlightAware
06:41AM 35.7070 28.9220 313° West 418 481 34,100  Climbing FlightAware
06:42AM 35.7540 28.8610 314° West 416 479 34,000 -120 Descending FlightAware
06:43AM 35.7950 28.8070 313° West 415 478 34,000  Level FlightAware
06:43AM 35.8450 28.7410 313° West 414 476 34,000  Level FlightAware
06:44AM 35.8930 28.6780 313° West 413 475 34,000  Level FlightAware
06:44AM 35.9380 28.6180 313° West 413 475 34,000  Level FlightAware
06:45AM 35.9840 28.5580 313° West 413 475 34,000  Level FlightAware
06:46AM 36.0280 28.4990 313° West 413 475 34,000  Level FlightAware
06:46AM 36.0690 28.4440 313° West 414 476 34,000  Level FlightAware
06:47AM 36.1210 28.3750 313° West 415 478 34,000  Level FlightAware
06:47AM 36.1640 28.3180 313° West 416 479 34,000  Level FlightAware
06:48AM 36.2120 28.2540 313° West 417 480 34,000  Level FlightAware
06:48AM 36.2540 28.1980 313° West 417 480 34,000  Level FlightAware
06:49AM 36.3000 28.1370 313° West 416 479 34,000  Level FlightAware
06:50AM 36.3590 28.0600 314° West 418 481 34,000  Level FlightAware
06:50AM 36.4200 27.9900 317° Northwest 418 481 34,000  Level FlightAware
06:51AM 36.4620 27.9420 317° Northwest 419 482 34,000  Level FlightAware
06:52AM 36.5160 27.8790 317° Northwest 421 484 34,000  Level FlightAware
06:52AM 36.5660 27.8210 317° Northwest 423 487 34,000  Level FlightAware
06:53AM 36.6170 27.7620 317° Northwest 423 487 34,000  Level FlightAware
06:53AM 36.6670 27.7030 317° Northwest 423 487 34,000  Level FlightAware
06:54AM 36.7190 27.6420 317° Northwest 423 487 34,000  Level FlightAware
06:55AM 36.7720 27.5810 317° Northwest 423 487 34,000  Level FlightAware
06:55AM 36.8180 27.5270 317° Northwest 425 489 34,000  Level FlightAware
06:56AM 36.8680 27.4680 317° Northwest 429 494 34,000  Level FlightAware
06:56AM 36.9210 27.4060 317° Northwest 430 495 34,000 60 Level FlightAware
06:57AM 36.9730 27.3450 317° Northwest 429 494 34,100 60 Climbing FlightAware
06:57AM 37.0170 27.2930 317° Northwest 428 493 34,100 -120 Level FlightAware
06:58AM 37.0720 27.2280 317° Northwest 427 491 34,000 -120 Descending FlightAware
06:59AM 37.1180 27.1730 316° Northwest 428 493 34,000  Level FlightAware
06:59AM 37.1710 27.1100 317° Northwest 429 494 34,000  Level FlightAware
07:00AM 37.2240 27.0470 317° Northwest 429 494 34,000  Level FlightAware
07:00AM 37.2760 26.9860 317° Northwest 427 491 34,000  Level FlightAware
07:01AM 37.3230 26.9300 317° Northwest 427 491 34,000  Level FlightAware
07:02AM 37.3700 26.8730 316° Northwest 425 489 34,000  Level FlightAware
07:02AM 37.4190 26.8170 318° Northwest 425 489 34,000  Level FlightAware
07:03AM 37.4730 26.7590 320° Northwest 423 487 34,000  Level FlightAware
07:03AM 37.5220 26.7060 319° Northwest 422 486 34,000  Level FlightAware
07:04AM 37.5780 26.6450 319° Northwest 423 487 34,000  Level FlightAware
07:05AM 37.6340 26.5850 320° Northwest 423 487 34,000  Level FlightAware
07:05AM 37.6800 26.5340 319° Northwest 425 489 34,000  Level FlightAware
07:06AM 37.7280 26.4820 319° Northwest 424 488 34,000  Level FlightAware
07:06AM 37.7870 26.4180 319° Northwest 425 489 34,000  Level FlightAware
07:07AM 37.8410 26.3590 319° Northwest 426 490 34,000  Level FlightAware
07:07AM 37.8920 26.3030 319° Northwest 428 493 34,000  Level FlightAware
07:08AM 37.9430 26.2470 319° Northwest 428 493 34,000  Level FlightAware
07:09AM 37.9970 26.1870 319° Northwest 428 493 34,000  Level FlightAware
07:09AM 38.0500 26.1300 320° Northwest 428 493 34,000  Level FlightAware
07:10AM 38.0950 26.0800 319° Northwest 428 493 34,000  Level FlightAware
07:10AM 38.1520 26.0170 319° Northwest 427 491 34,000  Level FlightAware
07:11AM 38.2050 25.9570 318° Northwest 427 491 34,000  Level FlightAware
07:11AM 38.2570 25.9090 324° Northwest 433 498 34,000  Level FlightAware
07:12AM 38.3080 25.8710 330° Northwest 433 498 34,000  Level FlightAware
07:13AM 38.3820 25.8170 330° Northwest 433 498 34,000  Level FlightAware
07:13AM 38.4450 25.7700 330° Northwest 432 497 34,000  Level FlightAware
07:14AM 38.5140 25.7190 330° Northwest 428 493 34,000  Level FlightAware
07:15AM 38.5740 25.6740 330° Northwest 427 491 34,000  Level FlightAware
07:15AM 38.6360 25.6280 330° Northwest 424 488 34,000  Level FlightAware
07:16AM 38.6880 25.5890 330° Northwest 423 487 34,000  Level FlightAware
07:16AM 38.7690 25.5280 330° Northwest 422 486 34,000  Level FlightAware
07:17AM 38.8340 25.4790 330° Northwest 422 486 34,000  Level FlightAware
07:18AM 38.8900 25.4360 329° Northwest 422 486 34,000  Level FlightAware
07:19AM 39.0250 25.3350 330° Northwest 425 489 34,000  Level FlightAware
07:19AM 39.0700 25.3010 330° Northwest 334 384 34,000  Level FlightAware
07:20AM 39.1370 25.2490 329° Northwest 418 481 34,000  Level FlightAware
07:21AM 39.1950 25.2050 330° Northwest 423 487 34,000  Level FlightAware
07:21AM 39.2610 25.1550 330° Northwest 422 486 34,000  Level FlightAware
07:22AM 39.3300 25.1020 329° Northwest 421 484 34,000  Level FlightAware
07:23AM 39.4020 25.0450 329° Northwest 412 474 34,000  Level FlightAware
07:23AM 39.4510 25.0050 328° Northwest 412 474 34,000  Level FlightAware
07:24AM 39.5230 24.9530 331° Northwest 412 474 34,000  Level FlightAware
07:25AM 39.5870 24.9040 329° Northwest 419 482 34,000  Level FlightAware
07:25AM 39.6370 24.8660 330° Northwest 419 482 34,000  Level FlightAware
07:26AM 39.6890 24.8250 329° Northwest 419 482 34,000  Level FlightAware
07:26AM 39.7400 24.7850 329° Northwest 419 482 34,000  Level FlightAware
07:27AM 39.7910 24.7450 329° Northwest 419 482 34,000  Level FlightAware
07:28AM 39.8930 24.6670 330° Northwest 411 473 34,000  Level FlightAware
07:28AM 39.9480 24.6240 329° Northwest 411 473 34,000  Level FlightAware
07:29AM 40.0090 24.5760 329° Northwest 408 470 34,000  Level FlightAware
07:29AM 40.0630 24.5330 329° Northwest 406 467 34,000  Level FlightAware
07:30AM 40.1200 24.4890 329° Northwest 403 464 34,000  Level FlightAware
07:31AM 40.1760 24.4450 329° Northwest 400 460 34,000  Level FlightAware
07:31AM 40.2320 24.4010 329° Northwest 399 459 34,000  Level FlightAware
07:32AM 40.2860 24.3580 329° Northwest 401 461 34,000  Level FlightAware
07:32AM 40.3490 24.3080 329° Northwest 399 459 34,000  Level FlightAware
07:33AM 40.4000 24.2670 329° Northwest 400 460 34,000  Level FlightAware
07:34AM 40.4520 24.2260 329° Northwest 399 459 34,000  Level FlightAware
07:34AM 40.5120 24.1780 329° Northwest 399 459 34,000  Level FlightAware
07:35AM 40.5730 24.1290 329° Northwest 399 459 34,000  Level FlightAware
07:35AM 40.6250 24.0880 329° Northwest 398 458 34,000  Level FlightAware
07:36AM 40.6840 24.0400 328° Northwest 397 457 34,000  Level FlightAware
07:37AM 40.7460 23.9900 329° Northwest 397 457 34,000  Level FlightAware
07:37AM 40.7990 23.9480 329° Northwest 397 457 34,000  Level FlightAware
07:38AM 40.8550 23.9030 329° Northwest 398 458 34,000  Level FlightAware
07:38AM 40.9100 23.8590 329° Northwest 399 459 34,000  Level FlightAware
07:39AM 40.9600 23.8180 328° Northwest 400 460 34,000  Level FlightAware
07:39AM 41.0190 23.7700 328° Northwest 399 459 34,000  Level FlightAware
07:40AM 41.0720 23.7270 329° Northwest 399 459 34,000  Level FlightAware
07:41AM 41.1300 23.6800 329° Northwest 399 459 34,000  Level FlightAware
07:41AM 41.1850 23.6390 331° Northwest 401 461 34,000  Level FlightAware
07:42AM 41.2440 23.6010 334° Northwest 402 463 34,000  Level FlightAware
07:42AM 41.3000 23.5640 334° Northwest 398 458 34,000  Level FlightAware
07:43AM 41.3620 23.5230 334° Northwest 399 459 34,000  Level FlightAware
07:44AM 41.4140 23.4870 333° Northwest 399 459 34,000  Level FlightAware
07:44AM 41.4790 23.4440 334° Northwest 399 459 34,000  Level FlightAware
07:45AM 41.5380 23.4030 333° Northwest 398 458 34,000  Level FlightAware
07:45AM 41.5890 23.3680 333° Northwest 398 458 34,000  Level FlightAware
07:46AM 41.6420 23.3330 334° Northwest 399 459 34,000  Level FlightAware
07:47AM 41.7080 23.2870 333° Northwest 401 461 34,000  Level FlightAware
07:47AM 41.7670 23.2470 333° Northwest 400 460 34,000  Level FlightAware
07:48AM 41.8180 23.2120 333° Northwest 401 461 34,000  Level FlightAware
07:48AM 41.8830 23.1670 333° Northwest 402 463 34,000  Level FlightAware
07:49AM 41.9360 23.1310 333° Northwest 402 463 34,000  Level FlightAware
07:49AM 41.9910 23.0930 333° Northwest 401 461 34,000  Level FlightAware
07:50AM 42.0540 23.0490 333° Northwest 401 461 34,000  Level FlightAware
07:51AM 42.1130 23.0090 333° Northwest 403 464 34,000  Level FlightAware
07:51AM 42.1650 22.9730 333° Northwest 404 465 34,000  Level FlightAware
07:52AM 42.2230 22.9320 332° Northwest 403 464 34,000  Level FlightAware
07:52AM 42.2820 22.8910 333° Northwest 402 463 34,000  Level FlightAware
07:53AM 42.3380 22.8520 333° Northwest 401 461 34,000  Level FlightAware
07:53AM 42.3880 22.8170 333° Northwest 400 460 34,000  Level FlightAware
07:54AM 42.4460 22.7760 332° Northwest 402 463 34,000  Level FlightAware
07:55AM 42.5090 22.7320 333° Northwest 403 464 34,000  Level FlightAware
07:55AM 42.5630 22.6950 333° Northwest 404 465 34,000  Level FlightAware
07:55AM 42.5850 22.6770 329° Northwest 399 459 34,000 60 Level FlightAware
07:56AM 42.6310 22.6100 313° West 387 445 34,100  Climbing FlightAware
07:57AM 42.6680 22.5500 310° West 386 444 34,000 -120 Descending FlightAware
07:57AM 42.7080 22.4880 311° West 385 443 34,000  Level FlightAware
07:58AM 42.7520 22.4180 311° West 385 443 34,000  Level FlightAware
07:58AM 42.7930 22.3520 310° West 385 443 34,000  Level FlightAware
07:59AM 42.8300 22.2930 311° West 386 444 34,000  Level FlightAware
07:59AM 42.8710 22.2270 310° West 386 444 34,000  Level FlightAware
08:00AM 42.9130 22.1590 310° West 386 444 34,000  Level FlightAware
08:01AM 42.9500 22.0980 310° West 386 444 34,000  Level FlightAware
08:01AM 42.9930 22.0290 310° West 386 444 34,000  Level FlightAware
08:02AM 43.0300 21.9690 310° West 386 444 34,000  Level FlightAware
08:02AM 43.0690 21.9050 310° West 386 444 34,000 60 Level FlightAware
08:03AM 43.1120 21.8340 310° West 387 445 34,100 480 Climbing FlightAware
08:04AM 43.1500 21.7720 310° West 389 448 34,600 840 Climbing FlightAware
08:04AM 43.1910 21.7060 310° West 387 445 35,100 900 Climbing FlightAware
08:05AM 43.2290 21.6420 309° West 386 444 35,700 720 Climbing FlightAware
08:05AM 43.2700 21.5750 310° West 377 434 36,000 240 Climbing FlightAware
08:06AM 43.3100 21.5090 310° West 377 434 36,000  Level FlightAware
08:06AM 43.3500 21.4430 310° West 380 437 36,000  Level FlightAware
08:07AM 43.3850 21.3860 310° West 379 436 36,000  Level FlightAware
08:08AM 43.4290 21.3120 309° West 377 434 36,000  Level FlightAware
08:08AM 43.4640 21.2530 309° West 379 436 36,000  Level FlightAware
08:09AM 43.5050 21.1850 310° West 382 440 36,000  Level FlightAware
08:09AM 43.5450 21.1170 309° West 385 443 36,000 60 Level FlightAware
08:10AM 43.5830 21.0540 310° West 384 442 36,100 60 Climbing FlightAware
08:10AM 43.6220 20.9890 310° West 383 441 36,100 -120 Level FlightAware
08:11AM 43.6430 20.9540 310° West 383 441 36,000 -120 Descending FlightAware
08:12AM 43.7030 20.8510 309° West 380 437 36,000  Level FlightAware
08:12AM 43.7390 20.7910 310° West 381 438 36,000  Level FlightAware
08:13AM 43.7790 20.7230 309° West 383 441 36,000  Level FlightAware
08:13AM 43.8180 20.6570 309° West 386 444 36,000  Level FlightAware
08:14AM 43.8580 20.5880 309° West 388 447 36,000  Level FlightAware
08:15AM 43.8980 20.5200 309° West 391 450 36,000  Level FlightAware
08:15AM 43.9360 20.4540 309° West 391 450 36,000  Level FlightAware
08:16AM 43.9770 20.3850 310° West 390 449 36,000  Level FlightAware
08:16AM 44.0180 20.3150 309° West 388 447 36,000  Level FlightAware
08:17AM 44.0520 20.2550 308° West 388 447 36,000  Level FlightAware
08:18AM 44.0960 20.1790 309° West 386 444 36,000  Level FlightAware
08:18AM 44.1350 20.1110 309° West 386 444 36,000  Level FlightAware
08:19AM 44.1740 20.0440 309° West 387 445 36,000  Level FlightAware
08:19AM 44.2120 19.9780 309° West 387 445 36,000  Level FlightAware
08:20AM 44.2510 19.9090 308° West 389 448 36,000  Level FlightAware
08:21AM 44.2940 19.8330 308° West 390 449 36,000  Level FlightAware
08:21AM 44.3370 19.7590 309° West 391 450 36,000  Level FlightAware
08:22AM 44.3750 19.6920 308° West 390 449 36,000  Level FlightAware
08:22AM 44.4150 19.6220 309° West 390 449 36,000  Level FlightAware
08:23AM 44.4550 19.5500 308° West 389 448 36,000  Level FlightAware
08:23AM 44.4920 19.4850 309° West 387 445 36,000  Level FlightAware
08:24AM 44.5340 19.4110 309° West 386 444 36,000  Level FlightAware
08:25AM 44.5720 19.3430 308° West 386 444 36,000  Level FlightAware
08:25AM 44.6060 19.2820 308° West 387 445 36,000  Level FlightAware
08:26AM 44.6500 19.2040 308° West 388 447 36,000  Level FlightAware
08:26AM 44.6900 19.1320 308° West 390 449 36,000  Level FlightAware
08:27AM 44.7240 19.0700 308° West 391 450 36,000  Level FlightAware
08:28AM 44.7770 18.9760 308° West 392 451 36,000  Level FlightAware
08:28AM 44.8140 18.9080 308° West 391 450 36,000  Level FlightAware
08:29AM 44.8600 18.8250 308° West 391 450 36,000  Level FlightAware
08:29AM 44.8930 18.7650 308° West 385 443 36,000  Level FlightAware
08:30AM 44.9320 18.6950 308° West 390 449 36,000  Level FlightAware
08:31AM 44.9700 18.6240 307° West 385 443 36,000  Level FlightAware
08:31AM 45.0140 18.5440 308° West 384 442 36,000  Level FlightAware
08:32AM 45.0460 18.4850 308° West 383 441 36,000  Level FlightAware
08:32AM 45.0840 18.4120 306° West 381 438 36,000  Level FlightAware
08:33AM 45.1150 18.3280 298° West 377 434 36,000  Level FlightAware
08:34AM 45.1400 18.2600 298° West 376 433 36,000  Level FlightAware
08:34AM 45.1730 18.1720 298° West 375 432 36,000  Level FlightAware
08:35AM 45.2010 18.0970 298° West 375 432 36,000  Level FlightAware
08:35AM 45.2250 18.0320 298° West 371 427 36,000  Level FlightAware
08:36AM 45.2570 17.9450 298° West 371 427 36,000  Level FlightAware
08:36AM 45.2790 17.8860 298° West 372 428 36,000  Level FlightAware
08:37AM 45.3090 17.8050 298° West 371 427 36,000  Level FlightAware
08:38AM 45.3400 17.7210 298° West 374 430 36,000  Level FlightAware
08:38AM 45.3690 17.6420 298° West 374 430 36,000  Level FlightAware
08:39AM 45.3970 17.5640 297° West 372 428 36,000  Level FlightAware
08:39AM 45.4220 17.4960 298° West 369 425 36,000  Level FlightAware
08:40AM 45.4480 17.4240 297° West 370 426 36,000  Level FlightAware
08:41AM 45.4920 17.3010 297° West 373 429 36,000  Level FlightAware
08:41AM 45.5160 17.2360 298° West 375 432 36,000  Level FlightAware
08:42AM 45.5440 17.1580 297° West 377 434 36,000  Level FlightAware
08:43AM 45.5670 17.0910 296° West 378 435 36,000  Level FlightAware
08:43AM 45.6030 16.9920 297° West 386 444 36,000  Level FlightAware
08:44AM 45.6320 16.9090 297° West 390 449 36,000  Level FlightAware
08:44AM 45.6560 16.8430 298° West 391 450 36,000 60 Level FlightAware
08:45AM 45.6870 16.7530 296° West 391 450 36,100  Climbing FlightAware
08:45AM 45.7120 16.6820 297° West 393 452 36,000 -120 Descending FlightAware
08:46AM 45.7430 16.5960 297° West 394 453 36,000  Level FlightAware
08:47AM 45.7700 16.5170 296° West 394 453 36,000  Level FlightAware
08:47AM 45.8040 16.4210 297° West 398 458 36,000  Level FlightAware
08:48AM 45.8270 16.3540 296° West 400 460 36,000  Level FlightAware
08:48AM 45.8570 16.2680 297° West 402 463 36,000  Level FlightAware
08:49AM 45.8860 16.1830 296° West 406 467 36,000  Level FlightAware
08:50AM 45.9150 16.1010 297° West 410 472 36,000  Level FlightAware
08:50AM 45.9420 16.0210 296° West 409 471 36,000 60 Level FlightAware
08:51AM 45.9770 15.9350 300° West 409 471 36,100  Climbing FlightAware
08:51AM 46.0150 15.8480 302° West 410 472 36,000 -120 Descending FlightAware
08:52AM 46.0490 15.7670 301° West 408 470 36,000  Level FlightAware
08:52AM 46.0830 15.6850 301° West 414 476 36,000  Level FlightAware
08:53AM 46.1240 15.5870 301° West 410 472 36,000  Level FlightAware
08:54AM 46.1610 15.5010 302° West 414 476 36,000  Level FlightAware
08:54AM 46.1970 15.4160 301° West 416 479 36,000  Level FlightAware
08:55AM 46.2440 15.3030 301° West 415 478 36,000 60 Level FlightAware
08:56AM 46.2780 15.2220 301° West 413 475 36,100  Climbing FlightAware
08:56AM 46.3090 15.1470 301° West 412 474 36,000 -120 Descending FlightAware
08:57AM 46.3530 15.0410 301° West 411 473 36,000  Level FlightAware
08:58AM 46.3900 14.9500 301° West 410 472 36,000  Level FlightAware
08:59AM 46.4360 14.8380 301° West 409 471 36,000  Level FlightAware
08:59AM 46.4770 14.7390 301° West 410 472 36,000  Level FlightAware
09:00AM 46.5130 14.6510 301° West 409 471 36,000  Level FlightAware
09:00AM 46.5400 14.5830 300° West 409 471 36,000  Level FlightAware
09:01AM 46.5850 14.4730 301° West 408 470 36,000  Level FlightAware
09:02AM 46.6160 14.3970 301° West 409 471 36,000  Level FlightAware
09:02AM 46.6520 14.3060 300° West 412 474 36,000  Level FlightAware
09:03AM 46.6880 14.2160 300° West 414 476 36,000  Level FlightAware
09:03AM 46.7190 14.1390 300° West 416 479 36,000  Level FlightAware
09:04AM 46.7530 14.0540 300° West 421 484 36,000  Level FlightAware
09:05AM 46.7860 13.9710 300° West 423 487 36,000  Level FlightAware
09:05AM 46.8220 13.8810 300° West 426 490 36,000 60 Level FlightAware
09:06AM 46.8530 13.8020 300° West 426 490 36,100 60 Climbing FlightAware
09:06AM 46.8900 13.7090 300° West 424 488 36,100 -120 Level FlightAware
09:07AM 46.9250 13.6200 300° West 423 487 36,000 -120 Descending FlightAware
09:08AM 46.9620 13.5260 300° West 422 486 36,000  Level FlightAware
09:08AM 46.9920 13.4480 299° West 422 486 36,000  Level FlightAware
09:09AM 47.0290 13.3530 300° West 423 487 36,000  Level FlightAware
09:09AM 47.0590 13.2760 300° West 425 489 36,000  Level FlightAware
09:10AM 47.0970 13.1780 300° West 428 493 36,000  Level FlightAware
09:10AM 47.1270 13.0990 299° West 430 495 36,000  Level FlightAware
09:11AM 47.1580 13.0180 299° West 430 495 36,000  Level FlightAware
09:11AM 47.1910 12.9330 300° West 430 495 36,000  Level FlightAware
09:12AM 47.2280 12.8350 299° West 429 494 36,000  Level FlightAware
09:13AM 47.2650 12.7390 300° West 428 493 36,000  Level FlightAware
09:13AM 47.2950 12.6590 299° West 427 491 36,000  Level FlightAware
09:14AM 47.3290 12.5680 299° West 424 488 36,000  Level FlightAware
09:14AM 47.3650 12.4730 299° West 422 486 36,000 -480 Level FlightAware
09:15AM 47.3960 12.3890 299° West 418 481 35,500 -840 Descending FlightAware
09:16AM 47.4240 12.3140 299° West 426 490 35,100 -480 Descending FlightAware
09:16AM 47.4640 12.2080 299° West 432 497 35,000 -120 Descending FlightAware
09:17AM 47.4990 12.1150 299° West 427 491 35,000  Level FlightAware
09:17AM 47.5280 12.0230 295° West 433 498 35,000  Level FlightAware
09:18AM 47.5500 11.9230 288° West 436 502 35,000  Level FlightAware
09:19AM 47.5630 11.8290 282° West 437 503 35,000  Level FlightAware
09:19AM 47.5780 11.7250 282° West 437 503 35,000  Level FlightAware
09:20AM 47.5910 11.6320 282° West 436 502 35,000  Level FlightAware
09:20AM 47.6060 11.5190 281° West 437 503 35,000 -180 Level FlightAware
09:21AM 47.6210 11.4110 282° West 438 504 34,800 -660 Descending FlightAware
09:22AM 47.6350 11.3050 281° West 438 504 34,200 -1,080 Descending FlightAware
09:22AM 47.6470 11.2020 280° West 439 505 33,600 -1,020 Descending FlightAware
09:23AM 47.6580 11.1080 280° West 438 504 33,100 -960 Descending FlightAware
09:23AM 47.6710 11.0010 280° West 441 507 32,500 -1,080 Descending FlightAware
09:24AM 47.6820 10.9000 279° West 436 502 31,900 -960 Descending FlightAware
09:24AM 47.6940 10.7990 280° West 431 496 31,400 -960 Descending FlightAware
09:25AM 47.7070 10.6920 280° West 426 490 30,800 -1,080 Descending FlightAware
09:26AM 47.7180 10.5930 279° West 421 484 30,200 -1,020 Descending FlightAware
09:26AM 47.7280 10.5040 280° West 416 479 29,700 -960 Descending FlightAware
09:27AM 47.7400 10.4050 280° West 417 480 29,100 -1,020 Descending FlightAware
09:27AM 47.7450 10.3030 274° West 421 484 28,500 -900 Descending FlightAware
09:28AM 47.7430 10.2050 268° West 418 481 28,100 -480 Descending FlightAware
09:28AM 47.7400 10.1110 267° West 418 481 28,000 -120 Descending FlightAware
09:29AM 47.7380 10.0030 268° West 417 480 28,000  Level FlightAware
09:30AM 47.7350 9.9040 267° West 415 478 28,000  Level FlightAware
09:30AM 47.7320 9.7910 268° West 415 478 28,000  Level FlightAware
09:31AM 47.7300 9.7100 268° West 415 478 28,000  Level FlightAware
09:31AM 47.7280 9.6090 268° West 416 479 28,000  Level FlightAware
09:32AM 47.7240 9.4930 267° West 415 478 28,000  Level FlightAware
09:33AM 47.7210 9.3940 267° West 415 478 28,000  Level FlightAware
09:33AM 47.7190 9.3010 268° West 415 478 28,000 -120 Level FlightAware
09:34AM 47.7160 9.1980 268° West 415 478 27,900 -1,680 Descending FlightAware
09:34AM 47.7130 9.0910 268° West 427 491 26,000 -2,940 Descending FlightAware
09:35AM 47.7090 8.9920 267° West 423 487 24,400 -2,820 Descending FlightAware
09:35AM 47.7060 8.8980 267° West 418 481 22,900 -2,940 Descending FlightAware
09:36AM 47.7030 8.8020 267° West 418 481 21,200 -2,700 Descending FlightAware
09:37AM 47.6990 8.7050 267° West 410 472 19,800 -2,400 Descending FlightAware
09:37AM 47.6970 8.6180 268° West 403 464 18,600 -2,280 Descending FlightAware
09:38AM 47.7080 8.5470 283° West 388 447 17,600 -1,800 Descending FlightAware
09:38AM 47.7280 8.4900 298° West 391 450 17,100 -1,740 Descending FlightAware
09:38AM 47.7390 8.4090 281° West 387 445 16,100 -1,800 Descending FlightAware
09:39AM 47.7500 8.3130 280° West 376 433 15,000 -1,920 Descending FlightAware
09:40AM 47.7600 8.2300 280° West 368 423 13,900 -1,800 Descending FlightAware
09:40AM 47.7700 8.1440 280° West 361 415 13,100 -840 Descending FlightAware
09:41AM 47.7820 8.0480 281° West 349 402 12,900 -1,200 Descending FlightAware
09:41AM 47.7890 7.9810 279° West 349 402 11,700 -2,280 Descending FlightAware
09:42AM 47.7950 7.8820 275° West 342 394 10,300 -1,500 Descending FlightAware
09:43AM 47.8010 7.8110 277° West 344 396 10,000 -480 Descending FlightAware
09:43AM 47.8070 7.7530 279° West 333 383 9,900 -540 Descending FlightAware
09:43AM 47.8090 7.7100 274° West 299 344 9,600 -840 Descending FlightAware
09:44AM 47.8020 7.6630 258° West 263 303 9,300 -3,240 Descending FlightAware
09:44AM 47.7870 7.6230 241° Southwest 272 313 7,000 -5,520 Descending FlightAware
09:44AM 47.7750 7.5920 240° Southwest 280 322 5,200 -4,080 Descending FlightAware
09:45AM 47.7590 7.5620 232° Southwest 264 304 4,100 -2,340 Descending FlightAware
09:45AM 47.7370 7.5400 214° Southwest 231 266 3,600 -1,800 Descending FlightAware
09:46AM 47.7190 7.5240 211° Southwest 220 253 2,900 -2,100 Descending FlightAware
09:46AM 47.7010 7.5100 208° Southwest 212 244 2,200 -1,800 Descending FlightAware
09:46AM 47.6830 7.4950 209° Southwest 205 236 1,700 -900 Descending FlightAware
09:47AM 47.6680 7.4830 208° Southwest 162 186 1,600 -240 Descending FlightAware
09:47AM 47.6610 7.4810 191° South 160 184 1,600 -600 Level FlightAware
09:47AM 47.6420 7.4930 157° South 145 167 1,200 -900 Descending FlightAware
09:48AM 47.6280 7.5020 157° South 141 162 900 -900 Descending FlightAware
09:48AM 47.6190 7.5090 152° Southeast 143 165 700 -840 Descending FlightAware
09:48AM 47.6060 7.5180 155° Southeast 110 127 -1,560 Descending FlightAware